EDDL/DUS METAR and TAF weather

Enter ICAO airport designator
Station Type Date Time Source
EDDL METAR 2020/09/19 02:50 UTC NOAA

EDDL 190250Z 03004KT CAVOK 10/05 Q1019 NOSIG


Station Type Date Time Source
EDDL Decoded METAR 2020/09/19 02:50 UTC NOAA

Duesseldorf, Germany (EDDL) 51-18N 006-46E 41M
Sep 18, 2020 - 10:50 PM EDT / 2020.09.19 0250 UTC
Wind: from the NNE (030 degrees) at 5 MPH (4 KT):0
Visibility: greater than 7 mile(s):0
Temperature: 50 F (10 C)
Dew Point: 41 F (5 C)
Relative Humidity: 71%
Pressure (altimeter): 30.09 in. Hg (1019 hPa)
ob: EDDL 190250Z 03004KT CAVOK 10/05 Q1019 NOSIG
cycle: 3

Station Type Date Time Source
EDDL TAF 2020/09/18 18:29 UTC NOAA

TAF EDDL 181700Z 1818/1924 05011KT CAVOK
BECMG 1819/1822 07006KT
TEMPO 1908/1917 13010KT

Example: see airport list